Cougar Trail Run

filter by:

Long Course Run

Race Number Name Team Time Place Gender Gender Place Division Division Place
239 Casey Thorby 1:22:27 1 Male 1 Male Junior (U20 Yea 1
113 David Haunschmidt 1:26:01 2 Male 2 Male Open (20-39 Yea 1
329 Matthew Hallam 1:29:34 3 Male 3 Male Open (20-39 Yea 2
242 Craig Torr 1:30:09 4 Male 4 Male Master (40-49 Y 1
319 Nick Crocker 1:31:21 5 Male 5 Male Open (20-39 Yea 3
288 Stewart Simpson 1:34:14 6 Male 6 Male Master (40-49 Y 2
348 Patrick de Jong 1:35:11 7 Male 7 Male Open (20-39 Yea 4
246 Barry Watts 1:36:13 8 Male 8 Male Open (20-39 Yea 5
125 Chris Horan 1:37:05 9 Male 9 Male Open (20-39 Yea 6
75 Sue Crowley 1:37:22 10 Female 1 Female Veteran (50-5 1
304 Ali Wilson 1:37:45 11 Female 2 Female Open (20-39 Y 1
115 Jordan Haylock 1:38:03 12 Male 10 Male Open (20-39 Yea 7
278 Amber Philp 1:38:14 13 Female 3 Female Open (20-39 Y 2
359 Chris Morrissey 1:39:39 14 Male 11 Male Master (40-49 Y 3
106 Ian Gurden 1:39:43 15 Male 12 Male Open (20-39 Yea 8
292 Emily Stephens 1:41:08 16 Female 4 Female Open (20-39 Y 3
261 Peter Knight 1:41:28 17 Male 13 Male Open (20-39 Yea 9
199 Timothy Pickering 1:42:15 18 Male 14 Male Open (20-39 Yea 10
55 Iain Breadmore 1:42:58 19 Male 15 Male Master (40-49 Y 4
218 Matt Sheaff 1:44:25 20 Male 16 Male Open (20-39 Yea 11
166 Emma Mccosh 1:44:47 21 Female 5 Female Master (40-49 1
268 Kate Moore 1:45:21 22 Female 6 Female Open (20-39 Y 4
230 Matthew Stokes 1:46:11 23 Male 17 Male Junior (U20 Yea 2
352 Mark Fordham 1:46:12 24 Male 18 Male Open (20-39 Yea 12
346 Harrison Coles 1:46:32 25 Male 19 Male Open (20-39 Yea 13
302 Nathan Wall 1:46:39 26 Male 20 Male Master (40-49 Y 5
127 Claire Horner 1:47:34 27 Female 7 Female Open (20-39 Y 5
138 Tom Johnston 1:48:27 28 Male 21 Male Veteran (50-59 1
270 Natko Muzina 1:49:35 29 Male 22 Male Master (40-49 Y 6
265 Liz Mcdougall 1:49:35 30 Female 8 Female Open (20-39 Y 6
182 Mujtaba Nazari 1:50:24 31 Male 23 Male Open (20-39 Yea 14
190 Emma O'connor 1:50:28 32 Female 9 Female Open (20-39 Y 7
285 Mike Rishworth 1:50:55 33 Male 24 Male Open (20-39 Yea 15
286 Andrew Russell 1:51:05 34 Male 25 Male Veteran (50-59 2
307 Shane Yeates 1:51:09 35 Male 26 Male Master (40-49 Y 7
324 Lawrence Edser 1:51:14 36 Male 27 Male Open (20-39 Yea 16
105 Siobhan Griffiths 1:51:15 37 Female 10 Female Master (40-49 2
264 Roisin Mc Quillan 1:51:55 38 Female 11 Female Master (40-49 3
305 Garry Wilson 1:52:23 39 Male 28 Male Veteran (50-59 3
62 Dianne Bulled 1:52:53 40 Female 12 Female Veteran (50-5 2
87 Benjamin Eitelberg 1:53:30 41 Male 29 Male Master (40-49 Y 8
250 Mel Whiting 1:53:31 42 Female 13 Female Master (40-49 4
134 Milan Jasarevic 1:53:38 43 Male 30 Male Open (20-39 Yea 17
74 Laura Crossan 1:53:39 44 Female 14 Female Open (20-39 Y 8
95 Mathew Foy 1:54:56 45 Male 31 Male Open (20-39 Yea 18
163 David Massey Rotorua Group Challenge (RGC) 1:54:58 46 Male 32 Male Master (40-49 Y 9
223 Alex Slack 1:55:18 47 Male 33 Male Open (20-39 Yea 19
39 Andrew Balme 1:55:25 48 Male 34 Male Open (20-39 Yea 20
226 Neil Spanhake 1:55:48 49 Male 35 Male Legend (60 Year 1
168 Elliot Mckinnel 1:56:18 50 Male 36 Male Open (20-39 Yea 21
42 Rich Barter 1:56:26 51 Male 37 Male Master (40-49 Y 10
181 Abul Fazal Nazari 1:56:43 52 Male 38 Male Open (20-39 Yea 22
179 Dave MUDFORD 1:56:45 53 Male 39 Male Master (40-49 Y 11
78 Lana Davison 1:56:54 54 Female 15 Female Open (20-39 Y 9
229 Andrew Stanley 1:57:18 55 Male 40 Male Veteran (50-59 4
53 Shane Bowling 1:57:32 56 Male 41 Male Master (40-49 Y 12
143 Byron Koppens 1:57:48 57 Male 42 Male Open (20-39 Yea 23
197 Jacob Phillips 1:57:53 58 Male 43 Male Open (20-39 Yea 24
67 Debbie Chambers 1:57:57 59 Female 16 Female Veteran (50-5 3
88 Miriam Ellis 1:58:32 60 Female 17 Female Master (40-49 5
61 Bridget Bull 1:58:44 61 Female 18 Female Open (20-39 Y 10
196 Jaimee Phillips 1:59:02 62 Female 19 Female Open (20-39 Y 11
354 Karen Maxwell 1:59:21 63 Female 20 Female Master (40-49 6
63 Andrea Bunn 2:01:00 64 Female 21 Female Master (40-49 7
322 Milla Dibben 2:01:05 65 Female 22 Female Junior (U20 Y 1
204 Anita Powell 2:01:41 66 Female 23 Female Open (20-39 Y 12
183 Murtaza Nazari 2:01:43 67 Male 44 Male Open (20-39 Yea 25
316 Julie Chiquet 2:01:59 68 Female 24 Female Open (20-39 Y 13
344 Craig Manktelow 2:02:04 69 Male 45 Male Veteran (50-59 5
160 Sarah Manders 2:02:04 70 Female 25 Female Master (40-49 8
46 John Binnie 2:02:55 71 Male 46 Male Veteran (50-59 6
325 Adam Fletcher 2:03:07 72 Male 47 Male Veteran (50-59 7
326 Max Fletcher 2:03:07 73 Male 48 Male Junior (U20 Yea 3
351 Phil Kerr 2:03:09 74 Male 49 Male Legend (60 Year 2
49 Nigel Blakeborough 2:03:48 75 Male 50 Male Veteran (50-59 8
277 Amy Perez 2:04:36 76 Female 26 Female Open (20-39 Y 14
337 Sarah Sinclair 2:04:40 77 Female 27 Female Master (40-49 9
36 Tehuia Apaapa 2:05:03 78 Male 51 Male Open (20-39 Yea 26
79 Dennis De Monchy 2:05:04 79 Male 52 Male Master (40-49 Y 13
51 Herman Bolk 2:06:10 80 Male 53 Male Open (20-39 Yea 27
133 Monique Jackson 2:06:12 81 Female 28 Female Open (20-39 Y 15
173 Julie Millar 2:06:13 82 Female 29 Female Master (40-49 10
137 Lisa Joblin 2:06:16 83 Female 30 Female Veteran (50-5 4
206 Savannah Purcell 2:06:16 84 Female 31 Female Open (20-39 Y 16
271 Sarah Nancolas 2:06:20 85 Female 32 Female Open (20-39 Y 17
89 Nikola Fisken 2:06:23 86 Female 33 Female Veteran (50-5 5
343 Steven Kent 2:06:29 87 Male 54 Male Master (40-49 Y 14
164 Malcolm Mayall 2:06:47 88 Male 55 Male Veteran (50-59 9
97 David Free 2:06:52 89 Male 56 Male Veteran (50-59 10
333 Garth Ingle 2:07:26 90 Male 57 Male Master (40-49 Y 15
353 Sue Petrie 2:07:36 91 Female 34 Female Veteran (50-5 6
297 Ben Taylor 2:07:39 92 Male 58 Male Open (20-39 Yea 28
283 Naomi Riedel 2:07:40 93 Female 35 Female Junior (U20 Y 2
317 Michael Clark 2:07:43 94 Male 59 Male Open (20-39 Yea 29
128 Dan Horton 2:07:50 95 Male 60 Male Open (20-39 Yea 30
298 Lauren Taylor 2:07:53 96 Female 36 Female Open (20-39 Y 18
332 James Hunt 2:07:56 97 Male 61 Male Legend (60 Year 3
308 Nikita Adlam 2:08:33 98 Female 37 Female Open (20-39 Y 19
315 Joanna Chalmers 2:08:36 99 Female 38 Female Master (40-49 11
37 Anna Armstrong 2:08:48 100 Female 39 Female Open (20-39 Y 20
245 Sam Watson 2:08:49 101 Male 62 Male Master (40-49 Y 16
68 Zane Conder 2:09:12 102 Male 63 Male Master (40-49 Y 17
80 Emma Dent 2:10:06 103 Female 40 Female Open (20-39 Y 21
99 Gerald Gibbard 2:10:22 104 Male 64 Male Legend (60 Year 4
167 Faith Mcgregor 2:10:29 105 Female 41 Female Master (40-49 12
345 Jonathan Kay 2:11:49 106 Male 65 Male Veteran (50-59 11
231 Aeron Storey 2:12:24 107 Male 66 Male Veteran (50-59 12
327 Rachel Fox 2:12:38 108 Female 42 Female Master (40-49 13
71 Roy Couper 2:12:56 109 Male 67 Male Veteran (50-59 13
193 Ashlee Paulsen 2:13:38 110 Female 43 Female Open (20-39 Y 22
112 Carol Harwood 2:13:43 111 Female 44 Female Master (40-49 14
269 Hrvoje Muzina 2:13:55 112 Male 68 Male Master (40-49 Y 18
203 Murray Poole 2:14:27 113 Male 69 Male Veteran (50-59 14
328 Amanda Green 2:14:33 114 Female 45 Female Open (20-39 Y 23
321 Ross Dewstow Running Tribe 2:15:00 115 Male 70 Male Legend (60 Year 5
101 Jo Gillespie 2:15:04 116 Female 46 Female Open (20-39 Y 24
313 Dave Boylan 2:15:06 117 Male 71 Male Master (40-49 Y 19
306 Michele Wynyard 2:15:39 118 Female 47 Female Veteran (50-5 7
92 Shiree Flutey 2:16:12 119 Female 48 Female Veteran (50-5 8
251 Jo Wills 2:16:15 120 Female 49 Female Master (40-49 15
111 Eleanor Harvey 2:16:40 121 Female 50 Female Open (20-39 Y 25
291 Cherie Smith 2:17:17 122 Female 51 Female Master (40-49 16
299 Grant Templeman Running Tribe 2:17:19 123 Male 72 Male Veteran (50-59 15
212 Matt Rusden 2:18:07 124 Male 73 Male Open (20-39 Yea 31
86 Marvin Edres 2:18:31 125 Male 74 Male Open (20-39 Yea 32
98 Andrea Gallaher Rotorua Group Challenge (RGC) 2:19:14 126 Female 52 Female Master (40-49 17
279 Katrina Price 2:19:16 127 Female 53 Female Master (40-49 18
262 Tanja Lempriere 2:19:32 128 Female 54 Female Master (40-49 19
70 Cindy Corkill 2:19:34 129 Female 55 Female Master (40-49 20
272 Joe Nathan 2:20:01 130 Male 75 Male Master (40-49 Y 20
122 Kent Holdsworth 2:20:04 131 Male 76 Male Veteran (50-59 16
356 Phillip Love 2:20:04 132 Male 77 Male Veteran (50-59 17
293 Michael Stephens 2:20:55 133 Male 78 Male Open (20-39 Yea 33
335 Connor Jones 2:20:55 134 Male 79 Male Open (20-39 Yea 34
227 Charlaine Spencer 2:21:14 135 Female 56 Female Veteran (50-5 9
34 Katrina Anderson 2:21:48 136 Female 57 Female Master (40-49 21
241 Graeme Tindall 2:22:13 137 Male 80 Male Master (40-49 Y 21
114 Damian Hawe Waikite Gym 2:23:00 138 Male 81 Male Master (40-49 Y 22
188 Bryan Newcombe 2:23:16 139 Male 82 Male Open (20-39 Yea 35
96 Dan Franklin 2:23:37 140 Male 83 Male Legend (60 Year 6
338 Jo South 2:23:50 141 Female 58 Female Open (20-39 Y 26
336 Sam Parker 2:23:50 142 Male 84 Male Master (40-49 Y 23
282 Raewyn Richmond 2:24:22 143 Female 59 Female Legend (60 Ye 1
48 Rose Bishop 2:24:28 144 Female 60 Female Master (40-49 22
120 Sarah Hillary 2:24:36 145 Female 61 Female Legend (60 Ye 2
295 Julie Sweeney 2:25:13 146 Female 62 Female Veteran (50-5 10
35 Pam Anderson 2:25:42 147 Female 63 Female Master (40-49 23
148 Hannah Law 2:25:45 148 Female 64 Female Open (20-39 Y 27
289 Jonathan Simpson 2:25:53 149 Male 85 Male Veteran (50-59 18
284 Paul Riedel 2:26:00 150 Male 86 Male Veteran (50-59 19
275 Michelle Parker 2:27:03 151 Female 65 Female Master (40-49 24
287 Zahra Shahtahmasebi 2:27:12 152 Female 66 Female Open (20-39 Y 28
198 Jayne Philpott 2:27:53 153 Female 67 Female Master (40-49 25
311 Aaron Birley 2:28:35 154 Male 87 Male Master (40-49 Y 24
266 Sue Meltzer 2:28:59 155 Female 68 Female Legend (60 Ye 3
41 Stece Barrott 2:29:27 156 Male 88 Male Veteran (50-59 20
309 Amy Beech 2:30:12 157 Female 69 Female Master (40-49 26
214 Eve Saxton 2:30:15 158 Female 70 Female Veteran (50-5 11
155 Min Lo 2:30:21 159 Female 71 Female Master (40-49 27
185 Keith Neal 2:30:22 160 Male 89 Male Veteran (50-59 21
102 Deb Gilmour 2:30:25 161 Female 72 Female Veteran (50-5 12
294 Kay Stockman 2:30:44 162 Female 73 Female Veteran (50-5 13
273 Charlotte Natusch 2:30:44 163 Female 74 Female Open (20-39 Y 29
215 Kurt Sayer 2:31:26 164 Male 90 Male Veteran (50-59 22
248 Vanessa Webber 2:31:30 165 Female 75 Female Veteran (50-5 14
301 Michele Verry 2:31:57 166 Female 76 Female Master (40-49 28
300 Lizette Van Rooyen 2:31:57 167 Female 77 Female Open (20-39 Y 30
130 Caroline Hunter 2:32:51 168 Female 78 Female Master (40-49 29
314 John Brugh 2:33:12 169 Male 91 Male Legend (60 Year 7
123 Sheryl Holmes 2:33:39 170 Female 79 Female Veteran (50-5 15
200 Heidi Pink 2:35:01 171 Female 80 Female Master (40-49 30
187 Nikki Newcombe 2:35:05 172 Female 81 Female Master (40-49 31
147 Rodney Lambert 2:35:22 173 Male 92 Male Master (40-49 Y 25
146 Djhoanna Lambert 2:35:22 174 Female 82 Female Open (20-39 Y 31
195 Tony Pekepo 2:35:58 175 Male 93 Male Master (40-49 Y 26
165 Jessica Mayhead 2:36:21 176 Female 83 Female Open (20-39 Y 32
44 Jana Bennett 2:36:40 177 Female 84 Female Master (40-49 32
129 Jordan Houston 2:37:10 178 Female 85 Female Open (20-39 Y 33
124 Brydie Hopkins 2:38:00 179 Female 86 Female Master (40-49 33
159 Hilmar Magnusson 2:38:23 180 Male 94 Male Veteran (50-59 23
323 Wayne Doughty 2:38:51 181 Male 95 Male Veteran (50-59 24
355 Claire Keam 2:39:29 182 Female 87 Female Open (20-39 Y 34
50 Nicky Bold 2:39:44 183 Female 88 Female Veteran (50-5 16
276 Karen Patterson 2:39:47 184 Female 89 Female Master (40-49 34
310 Bryce Binnie 2:41:28 185 Male 96 Male Veteran (50-59 25
267 Nancy Miller 2:41:36 186 Female 90 Female Veteran (50-5 17
347 Viv Leslie 2:42:05 187 Female 91 Female Veteran (50-5 18
339 Elise Van Den Broek 2:42:07 188 Female 92 Female Open (20-39 Y 35
340 Ed Van Den Broek 2:42:07 189 Male 97 Male Veteran (50-59 26
91 Ivar Flint 2:42:09 190 Male 98 Male Master (40-49 Y 27
211 Tara Rountree 2:42:51 191 Female 93 Female Master (40-49 35
135 Suzanne Jeffels 2:42:57 192 Female 94 Female Veteran (50-5 19
157 Gemma Lowry 2:43:03 193 Female 95 Female Master (40-49 36
1 Wayne Bowler 2:45:11 194 Male 99 Male Veteran (50-59 27
104 Toni Grace 2:45:11 195 Female 96 Female Master (40-49 37
54 Lynda Brahne 2:46:33 196 Female 97 Female Veteran (50-5 20
312 Cathie Blade 2:46:33 197 Female 98 Female Legend (60 Ye 4
94 Amba Foster-Miles 2:46:49 198 Female 99 Female Open (20-39 Y 36
237 Leon Taylor 2:46:49 199 Male 100 Male Veteran (50-59 28
32 Carolyn Allen 2:47:39 200 Female 100 Female Master (40-49 38
73 Mike Crawford 2:47:52 201 Male 101 Male Master (40-49 Y 28
84 Cathy Eastergaard 2:48:00 202 Female 101 Female Master (40-49 39
83 Maree Earl 2:49:04 203 Male 102 Male Veteran (50-59 29
33 Richard Andersen 2:49:21 204 Male 103 Male Open (20-39 Yea 36
296 Rebecca Symes 2:49:36 205 Female 102 Female Open (20-39 Y 37
235 Scott Tasker 2:49:43 206 Male 104 Male Veteran (50-59 30
119 Tracy Hickman 2:50:48 207 Female 103 Female Veteran (50-5 21
221 Jo Sims 2:50:48 208 Female 104 Female Master (40-49 40
103 Carmen Goodwin 2:50:58 209 Female 105 Female Master (40-49 41
303 Natasja Wilmot 2:51:10 210 Female 106 Female Master (40-49 42
202 Louise Player-Bishop 2:52:18 211 Female 107 Female Legend (60 Ye 5
209 Paula Roberts 2:52:45 212 Female 108 Female Master (40-49 43
249 Jacqui Whalley 2:52:56 213 Female 109 Female Veteran (50-5 22
169 Sarah Mclaughlin 2:53:39 214 Female 110 Female Open (20-39 Y 38
208 Mhairi Rademaker 2:54:03 215 Female 111 Female Open (20-39 Y 39
205 Marlena Prentice 2:54:10 216 Female 112 Female Open (20-39 Y 40
156 Robyn Lovewell 2:55:45 217 Female 113 Female Master (40-49 44
194 Laura Peers-Adams 2:56:12 218 Female 114 Female Open (20-39 Y 41
100 Rod Gill 2:57:29 219 Male 105 Male Legend (60 Year 8
219 Karen Shepherd 2:57:53 220 Female 115 Female Legend (60 Ye 6
162 Andrew Marshall 2:58:51 221 Male 106 Male Veteran (50-59 31
30 Barbara Adams 2:59:10 222 Female 116 Female Master (40-49 45
234 Lexie TAIT MCCOSH 2:59:12 223 Female 117 Female Legend (60 Ye 7
357 Alton Melville 2:59:17 224 Male 107 Male Legend (60 Year 9
65 Anthony Calis-Tangye 3:00:34 225 Male 108 Male Veteran (50-59 32
158 Katrina Lund-Tangye 3:00:34 226 Female 118 Female Legend (60 Ye 8
93 Paul Flutey 3:00:53 227 Male 109 Male Veteran (50-59 33
222 Mauritz Slabbert 3:02:14 228 Male 110 Male Master (40-49 Y 29
216 Claudia Schulze Waikite Gym 3:03:22 229 Female 119 Female Open (20-39 Y 42
60 Mike Buckley 3:03:29 230 Male 111 Male Master (40-49 Y 30
59 Sarah Buchanan 3:03:35 231 Female 120 Female Open (20-39 Y 43
224 Troy Smith 3:05:39 232 Male 112 Male Master (40-49 Y 31
174 Denise Mills 3:06:36 233 Female 121 Female Master (40-49 46
57 Dick Breukink 3:08:39 234 Male 113 Male Legend (60 Year 10
64 Sue Byers 3:12:32 235 Female 122 Female Legend (60 Ye 9
176 Lorraine Monty Rotorua Group Challenge (RGC) 3:13:19 236 Female 123 Female Veteran (50-5 23
192 Tracey Papuni 3:13:19 237 Female 124 Female Veteran (50-5 24
290 Karen Smart 3:14:33 238 Female 125 Female Legend (60 Ye 10
225 Carl Smith 3:18:12 239 Male 114 Male Open (20-39 Yea 37
151 Leanne Leggett 3:18:36 240 Female 126 Female Veteran (50-5 25
201 Corrina Pinkerton 3:23:06 241 Female 127 Female Veteran (50-5 26
331 Carol Howell 3:24:57 242 Female 128 Female Master (40-49 47
186 Deborah Nesti 3:26:13 243 Female 129 Female Veteran (50-5 27
109 Phillip Hansen 3:31:10 244 Male 115 Male Legend (60 Year 11
107 ZILAH HAMDAN 3:31:15 245 Female 130 Female Open (20-39 Y 44
175 Leanna Mitchell 3:32:29 246 Female 131 Female Master (40-49 48
85 Rebecca Edgecombe 3:32:37 247 Female 132 Female Veteran (50-5 28
31 Natalie Allan Rotorua Group Challenge (RGC) 3:33:31 248 Female 133 Female Veteran (50-5 29
126 Jacquie Horgan 3:33:32 249 Female 134 Female Veteran (50-5 30
47 Andrea Birchall 3:37:37 250 Female 135 Female Veteran (50-5 31
334 Liz Ireland 3:39:21 251 Female 136 Female Veteran (50-5 32
145 Carol Lahood 3:39:24 252 Female 137 Female Legend (60 Ye 11
350 Nikki Miller 3:41:24 253 Female 138 Female Open (20-39 Y 45
220 Janet Shorland 3:41:26 254 Female 139 Female Veteran (50-5 33
238 Helen Thompson 3:48:10 255 Female 140 Female Master (40-49 49
121 Leanne Hinton 3:48:21 256 Female 141 Female Legend (60 Ye 12
108 Rob Hammington 3:48:21 257 Male 116 Male Legend (60 Year 12
153 Daryl Lewis 3:53:44 258 Female 142 Female Legend (60 Ye 13
152 Nicole Leslie 3:57:24 259 Female 143 Female Master (40-49 50
236 Monica Tate 4:03:13 260 Female 144 Female Legend (60 Ye 14
254 Amy Yeoman 4:06:42 261 Female 145 Female Master (40-49 51
170 Karen Mclaughlin 4:37:01 262 Female 146 Female Legend (60 Ye 15